Mercury — 3FFC7 — position and weather

sailwx.info

Track history (hours):
 
Tides and Currents Weather Stations Pressure Air Temp Water Temp Dewpoint Dewpoint Depression Visibility Wind Speed Wind Dir Waves Ship Positions

Mercury

Operator: Royal Caribbean Cruises Ltd

Last reported at 2018-May-22 14:00 UTC. Time now 2018-May-22 14:04 UTC.
Position N 19°24' W 095°57'.

Length 199 m; draft 7.4 m.

Type: Cargo ship. MMSI: 371862000.

Date/timePositionNaut miles runAvg speedWind from/ knotsBaromVisibWave heightAir tempDewpointWater temp
2018-May-22 14:00N 19°24' W 095°57'1 1.0
2018-May-22 13:30N 19°24' W 095°57'1 1.2
2018-May-22 13:00N 19°24' W 095°56'1 1.5
2018-May-22 12:30N 19°25' W 095°56'1 1.5
2018-May-22 12:00N 19°25' W 095°55'1 1.4
2018-May-22 11:30N 19°26' W 095°55'1 1.3
2018-May-22 11:00N 19°27' W 095°54'1 1.4
2018-May-22 10:30N 19°27' W 095°54'1 1.5
2018-May-22 10:00N 19°28' W 095°54'1 1.3
2018-May-22 09:30N 19°29' W 095°54'1 1.2
2018-May-22 09:00N 19°29' W 095°53'1 1.4
2018-May-22 08:30N 19°30' W 095°53'1 1.3
2018-May-22 08:00N 19°30' W 095°53'1 1.3
2018-May-22 07:30N 19°31' W 095°53'1 1.3
2018-May-22 07:00N 19°32' W 095°53'1 1.3
2018-May-22 06:30N 19°32' W 095°53'1 1.4
2018-May-22 06:00N 19°33' W 095°52'1 1.4
2018-May-22 05:30N 19°34' W 095°52'1 1.0
2018-May-22 05:00N 19°34' W 095°52'0 0.3
2018-May-22 04:30N 19°34' W 095°52'5 9.3
2018-May-22 04:00N 19°32' W 095°56'713.2
2018-May-22 03:30N 19°30' W 096°03'713.0
2018-May-22 03:00N 19°28' W 096°09'2 3.4
2018-May-22 02:30N 19°27' W 096°11'1 1.5
2018-May-22 01:57N 19°27' W 096°10'1 1.6
2018-May-22 01:30N 19°27' W 096°09'1 1.6
2018-May-22 01:00N 19°27' W 096°09'1 1.7
2018-May-22 00:30N 19°26' W 096°08'1 1.7
2018-May-22 00:00N 19°26' W 096°07'1 1.6
2018-May-21 23:28N 19°26' W 096°06'1 1.5
2018-May-21 23:00N 19°26' W 096°05'1 1.6
2018-May-21 22:30N 19°26' W 096°04'1 1.5
2018-May-21 22:00N 19°26' W 096°04'1 2.0
2018-May-21 21:30N 19°27' W 096°03'1 2.0
2018-May-21 21:00N 19°27' W 096°02'1 2.0
2018-May-21 20:30N 19°27' W 096°00'1 1.9
2018-May-21 20:00N 19°28' W 095°60'1 1.9
2018-May-21 19:30N 19°28' W 095°59'1 1.9
2018-May-21 19:00N 19°29' W 095°58'1 2.0
2018-May-21 18:30N 19°29' W 095°57'1 1.6
2018-May-21 18:00N 19°29' W 095°56'1 1.6
2018-May-21 17:30N 19°30' W 095°55'1 1.6
2018-May-21 17:00N 19°30' W 095°54'1 1.6
2018-May-21 16:30N 19°30' W 095°54'1 1.3
2018-May-21 16:00N 19°30' W 095°53'1 1.1
2018-May-21 15:30N 19°31' W 095°53'1 1.3
2018-May-21 15:00N 19°31' W 095°52'1 1.4
2018-May-21 14:30N 19°32' W 095°52'0 0.7
2018-May-21 13:56N 19°32' W 095°52'511.0
2018-May-21 13:30N 19°28' W 095°54'612.7
2018-May-21 13:00N 19°22' W 095°57'2 3.6
2018-May-21 12:30N 19°20' W 095°58'1 1.6
2018-May-21 12:00N 19°21' W 095°57'1 1.7
2018-May-21 11:30N 19°22' W 095°57'1 1.6
2018-May-21 11:00N 19°22' W 095°56'1 1.6
2018-May-21 10:30N 19°23' W 095°56'1 1.5
2018-May-21 10:00N 19°24' W 095°55'1 1.4
2018-May-21 09:30N 19°24' W 095°55'1 1.3
2018-May-21 09:00N 19°25' W 095°55'1 1.2
2018-May-21 08:30N 19°25' W 095°54'1 1.3
2018-May-21 08:00N 19°26' W 095°54'1 1.3
2018-May-21 07:29N 19°27' W 095°54'1 1.5
2018-May-21 07:00N 19°27' W 095°54'1 1.7
2018-May-21 06:30N 19°28' W 095°53'1 1.7
2018-May-21 06:00N 19°29' W 095°53'1 1.6
2018-May-21 05:30N 19°30' W 095°53'1 1.7
2018-May-21 05:00N 19°30' W 095°52'1 1.4
2018-May-21 04:30N 19°31' W 095°52'1 1.4
2018-May-21 04:00N 19°32' W 095°52'1 1.5
2018-May-21 03:29N 19°32' W 095°51'0 0.3
2018-May-21 02:56N 19°32' W 095°51'4 8.4
2018-May-21 02:29N 19°29' W 095°53'612.9
2018-May-21 02:00N 19°24' W 095°57'4 8.7
2018-May-21 01:30N 19°20' W 095°59'1 1.3
2018-May-21 01:00N 19°21' W 095°59'1 1.5
2018-May-21 00:30N 19°21' W 095°58'1 1.5
2018-May-21 00:00N 19°22' W 095°58'1 1.4
2018-May-20 23:30N 19°23' W 095°58'1 1.3
2018-May-20 23:00N 19°23' W 095°57'0 0.8
2018-May-20 22:30N 19°23' W 095°57'2 3.1
2018-May-20 22:00N 19°22' W 095°58'1 1.2
2018-May-20 21:30N 19°23' W 095°58'1 1.1
2018-May-20 21:00N 19°23' W 095°58'1 1.0
2018-May-20 20:30N 19°24' W 095°57'1 1.0
2018-May-20 20:00N 19°24' W 095°57'0 0.9
2018-May-20 19:30N 19°25' W 095°57'0 0.9
2018-May-20 19:00N 19°25' W 095°57'0 0.9
2018-May-20 18:30N 19°25' W 095°57'0 0.8
2018-May-20 18:00N 19°26' W 095°56'0 0.9
2018-May-20 17:30N 19°26' W 095°56'0 0.9
2018-May-20 17:00N 19°27' W 095°56'0 0.8
2018-May-20 16:30N 19°27' W 095°56'0 0.8
2018-May-20 16:00N 19°27' W 095°56'0 0.7
2018-May-20 15:30N 19°27' W 095°55'0 0.8
2018-May-20 15:00N 19°28' W 095°55'0 0.7
2018-May-20 14:30N 19°28' W 095°55'0 0.7
2018-May-20 14:00N 19°28' W 095°55'0 0.8
2018-May-20 13:30N 19°29' W 095°54'0 0.8
2018-May-20 13:00N 19°29' W 095°54'0 0.8
2018-May-20 12:26N 19°29' W 095°54'0 0.8
2018-May-20 12:00N 19°29' W 095°54'0 0.9
2018-May-20 11:30N 19°30' W 095°53'0 1.0
2018-May-20 11:00N 19°30' W 095°53'0 0.9
2018-May-20 10:30N 19°30' W 095°52'0 0.9
2018-May-20 10:00N 19°31' W 095°52'0 0.9
2018-May-20 09:30N 19°31' W 095°52'0 0.9
2018-May-20 09:00N 19°31' W 095°51'0 0.4
2018-May-20 08:25N 19°31' W 095°51'0 0.6
2018-May-20 08:00N 19°31' W 095°51'4 8.8
2018-May-20 07:30N 19°28' W 095°55'713.9
2018-May-20 07:00N 19°23' W 096°00'1 1.7
2018-May-20 06:30N 19°22' W 096°00'1 1.1
2018-May-20 05:59N 19°23' W 095°60'1 1.5
2018-May-20 05:30N 19°23' W 095°59'1 1.6
2018-May-20 05:01N 19°24' W 095°58'1 1.8
2018-May-20 04:30N 19°24' W 095°58'1 1.8
2018-May-20 04:00N 19°25' W 095°57'1 1.8
2018-May-20 03:30N 19°26' W 095°57'1 1.9
2018-May-20 03:00N 19°26' W 095°56'1 1.9
2018-May-20 02:30N 19°27' W 095°56'1 1.7
2018-May-20 02:00N 19°28' W 095°55'1 1.5
2018-May-20 01:31N 19°29' W 095°55'1 1.3
2018-May-20 00:59N 19°29' W 095°54'1 1.2
2018-May-20 00:30N 19°30' W 095°54'1 1.0
2018-May-20 00:00N 19°30' W 095°54'0 1.0
2018-May-19 23:30N 19°31' W 095°54'0 0.9
2018-May-19 23:00N 19°31' W 095°54'0 0.8
2018-May-19 22:30N 19°32' W 095°54'0 0.8
2018-May-19 22:00N 19°32' W 095°54'0 0.7
2018-May-19 21:30N 19°32' W 095°54'0 0.7
2018-May-19 21:00N 19°33' W 095°54'0 0.5
2018-May-19 20:30N 19°33' W 095°54'0 0.4
2018-May-19 20:00N 19°33' W 095°54'0 0.4
2018-May-19 19:30N 19°33' W 095°54'0 0.3
2018-May-19 18:27N 19°34' W 095°54'0 0.0
2018-May-19 17:59N 19°34' W 095°54'0 0.2
2018-May-19 17:30N 19°33' W 095°54'0 0.4
2018-May-19 16:59N 19°33' W 095°54'0 0.8
2018-May-19 16:30N 19°33' W 095°54'0 0.4
2018-May-19 15:56N 19°33' W 095°54'0 0.6
2018-May-19 15:29N 19°33' W 095°54'0 0.7
2018-May-19 15:00N 19°32' W 095°54'0 0.8
2018-May-19 14:30N 19°32' W 095°54'0 0.8
2018-May-19 14:00N 19°32' W 095°54'0 0.7
2018-May-19 13:30N 19°31' W 095°54'0 0.7
2018-May-19 13:00N 19°31' W 095°53'0 0.7
2018-May-19 12:30N 19°31' W 095°53'0 0.7
2018-May-19 11:56N 19°31' W 095°53'0 0.9
2018-May-19 11:30N 19°31' W 095°52'0 0.9
2018-May-19 11:00N 19°31' W 095°52'0 0.8
2018-May-19 10:30N 19°31' W 095°51'1 0.5
2018-May-19 08:41N 19°30' W 095°51'1 5.6
2018-May-19 08:30N 19°29' W 095°52'713.6
2018-May-19 08:00N 19°23' W 095°54'1 2.6
2018-May-19 07:30N 19°22' W 095°55'0 1.0
2018-May-19 07:00N 19°22' W 095°54'1 1.1
2018-May-19 06:30N 19°22' W 095°54'1 1.1
2018-May-19 06:00N 19°23' W 095°53'1 1.1
2018-May-19 05:30N 19°23' W 095°53'1 1.2
2018-May-19 05:00N 19°23' W 095°53'1 1.4
2018-May-19 04:30N 19°24' W 095°52'1 1.4
2018-May-19 04:00N 19°25' W 095°52'1 1.4
2018-May-19 03:30N 19°25' W 095°51'1 1.2
2018-May-19 03:00N 19°26' W 095°51'1 1.3
2018-May-19 02:28N 19°26' W 095°51'1 1.1
2018-May-19 01:59N 19°27' W 095°51'1 1.0
2018-May-19 01:30N 19°27' W 095°51'0 1.0
2018-May-19 01:00N 19°28' W 095°51'1 1.0
2018-May-19 00:27N 19°28' W 095°51'0 0.9
2018-May-19 00:00N 19°29' W 095°51'0 0.6
2018-May-18 23:30N 19°29' W 095°51'0 0.5
2018-May-18 23:00N 19°29' W 095°51'0 0.4
2018-May-18 22:30N 19°30' W 095°51'0 0.3
2018-May-18 22:00N 19°30' W 095°51'0 0.3
2018-May-18 21:30N 19°30' W 095°51'0 0.5
2018-May-18 21:00N 19°30' W 095°51'0 0.6
2018-May-18 20:30N 19°29' W 095°52'0 0.6
2018-May-18 20:00N 19°29' W 095°52'0 0.6
2018-May-18 19:30N 19°29' W 095°52'0 0.4
2018-May-18 18:54N 19°29' W 095°52'0 0.4
2018-May-18 18:30N 19°29' W 095°53'0 0.4
2018-May-18 17:43N 19°29' W 095°53'0 0.4
2018-May-18 17:26N 19°29' W 095°53'0 0.5
2018-May-18 17:00N 19°28' W 095°53'0 0.5
2018-May-18 16:30N 19°28' W 095°53'0 0.6
2018-May-18 16:00N 19°28' W 095°53'0 0.6
2018-May-18 15:30N 19°28' W 095°53'0 0.4
2018-May-18 15:00N 19°27' W 095°53'0 0.2
2018-May-18 14:30N 19°28' W 095°53'0 0.3
2018-May-18 14:00N 19°28' W 095°53'0 0.4
2018-May-18 13:30N 19°28' W 095°53'0 0.4
2018-May-18 13:00N 19°28' W 095°53'0 0.3
2018-May-18 12:30N 19°28' W 095°53'0 0.3
2018-May-18 12:01N 19°28' W 095°52'0 0.2
2018-May-18 11:30N 19°28' W 095°52'0 0.1
2018-May-18 11:00N 19°28' W 095°52'0 0.2
2018-May-18 10:30N 19°28' W 095°52'0 0.2
2018-May-18 10:00N 19°28' W 095°52'0 0.3
2018-May-18 09:28N 19°28' W 095°52'0 0.4
2018-May-18 09:00N 19°29' W 095°52'0 0.5
2018-May-18 08:31N 19°29' W 095°52'0 0.6
2018-May-18 08:01N 19°29' W 095°52'0 0.5
2018-May-18 07:31N 19°29' W 095°52'0 0.5
2018-May-18 07:00N 19°30' W 095°51'0 0.5
2018-May-18 06:30N 19°30' W 095°51'0 0.5
2018-May-18 05:59N 19°30' W 095°51'0 0.5
2018-May-18 05:30N 19°30' W 095°51'0 0.3
2018-May-18 05:00N 19°30' W 095°51'0 0.3
2018-May-18 04:30N 19°30' W 095°51'0 0.1
2018-May-18 04:00N 19°31' W 095°51'0 0.1
2018-May-18 03:30N 19°30' W 095°51'1 1.2
2018-May-18 03:01N 19°30' W 095°51'612.2
2018-May-18 02:30N 19°25' W 095°54'714.1
2018-May-18 02:00N 19°18' W 095°57'510.2
2018-May-18 01:30N 19°15' W 095°53'714.3
2018-May-18 01:00N 19°15' W 095°46'814.3
2018-May-18 00:28N 19°15' W 095°38'27114.2
2018-May-17 05:24N 21°17' W 091°20'614.9
2018-May-17 04:59N 21°20' W 091°14'814.9
2018-May-17 04:28N 21°24' W 091°07'714.9
2018-May-17 04:00N 21°27' W 091°01'715.1
2018-May-17 03:31N 21°31' W 090°53'815.1
2018-May-17 03:00N 21°34' W 090°46'815.1
2018-May-17 02:31N 21°38' W 090°39'815.0
2018-May-17 02:00N 21°42' W 090°32'815.2
2018-May-17 01:30N 21°45' W 090°25'815.1
2018-May-17 01:01N 21°49' W 090°18'815.3
2018-May-17 00:28N 21°53' W 090°10'715.4
2018-May-17 00:00N 21°56' W 090°03'815.2
2018-May-16 23:30N 21°60' W 089°56'1015.0
2018-May-16 22:51N 22°04' W 089°46'615.1
2018-May-16 22:29N 22°06' W 089°41'58214.3
2018-May-15 05:49N 24°57' W 079°34'917.7
2018-May-15 05:20N 25°05' W 079°33'617.7
2018-May-15 05:00N 25°11' W 079°32'917.5
2018-May-15 04:30N 25°20' W 079°32'817.3
2018-May-15 04:00N 25°28' W 079°32'917.1
2018-May-15 03:30N 25°37' W 079°32'816.7
2018-May-15 03:00N 25°45' W 079°31'1116.6
2018-May-15 02:19N 25°56' W 079°28'616.9
2018-May-15 01:59N 26°02' W 079°27'816.1
2018-May-15 01:30N 26°09' W 079°27'612.3
2018-May-15 01:00N 26°16' W 079°26'  
2018-May-12 20:40N 35°29' W 073°19'213.7
2018-May-12 20:30N 35°32' W 073°18'  
Track history (hours):
 
Tides and Currents Weather Stations Pressure Air Temp Water Temp Dewpoint Dewpoint Depression Visibility Wind Speed Wind Dir Waves Ship Positions

Mercury

Operator: Royal Caribbean Cruises Ltd

Last reported at 2018-May-22 14:00 UTC. Time now 2018-May-22 14:04 UTC.
Position N 19°24' W 095°57'.

Length 199 m; draft 7.4 m.

Type: Cargo ship. MMSI: 371862000.

Date/timePositionNaut miles runAvg speedWind from/ knotsBaromVisibWave heightAir tempDewpointWater temp
2018-May-22 14:00N 19°24' W 095°57'1 1.0
2018-May-22 13:30N 19°24' W 095°57'1 1.2
2018-May-22 13:00N 19°24' W 095°56'1 1.5
2018-May-22 12:30N 19°25' W 095°56'1 1.5
2018-May-22 12:00N 19°25' W 095°55'1 1.4
2018-May-22 11:30N 19°26' W 095°55'1 1.3
2018-May-22 11:00N 19°27' W 095°54'1 1.4
2018-May-22 10:30N 19°27' W 095°54'1 1.5
2018-May-22 10:00N 19°28' W 095°54'1 1.3
2018-May-22 09:30N 19°29' W 095°54'1 1.2
2018-May-22 09:00N 19°29' W 095°53'1 1.4
2018-May-22 08:30N 19°30' W 095°53'1 1.3
2018-May-22 08:00N 19°30' W 095°53'1 1.3
2018-May-22 07:30N 19°31' W 095°53'1 1.3
2018-May-22 07:00N 19°32' W 095°53'1 1.3
2018-May-22 06:30N 19°32' W 095°53'1 1.4
2018-May-22 06:00N 19°33' W 095°52'1 1.4
2018-May-22 05:30N 19°34' W 095°52'1 1.0
2018-May-22 05:00N 19°34' W 095°52'0 0.3
2018-May-22 04:30N 19°34' W 095°52'5 9.3
2018-May-22 04:00N 19°32' W 095°56'713.2
2018-May-22 03:30N 19°30' W 096°03'713.0
2018-May-22 03:00N 19°28' W 096°09'2 3.4
2018-May-22 02:30N 19°27' W 096°11'1 1.5
2018-May-22 01:57N 19°27' W 096°10'1 1.6
2018-May-22 01:30N 19°27' W 096°09'1 1.6
2018-May-22 01:00N 19°27' W 096°09'1 1.7
2018-May-22 00:30N 19°26' W 096°08'1 1.7
2018-May-22 00:00N 19°26' W 096°07'1 1.6
2018-May-21 23:28N 19°26' W 096°06'1 1.5
2018-May-21 23:00N 19°26' W 096°05'1 1.6
2018-May-21 22:30N 19°26' W 096°04'1 1.5
2018-May-21 22:00N 19°26' W 096°04'1 2.0
2018-May-21 21:30N 19°27' W 096°03'1 2.0
2018-May-21 21:00N 19°27' W 096°02'1 2.0
2018-May-21 20:30N 19°27' W 096°00'1 1.9
2018-May-21 20:00N 19°28' W 095°60'1 1.9
2018-May-21 19:30N 19°28' W 095°59'1 1.9
2018-May-21 19:00N 19°29' W 095°58'1 2.0
2018-May-21 18:30N 19°29' W 095°57'1 1.6
2018-May-21 18:00N 19°29' W 095°56'1 1.6
2018-May-21 17:30N 19°30' W 095°55'1 1.6
2018-May-21 17:00N 19°30' W 095°54'1 1.6
2018-May-21 16:30N 19°30' W 095°54'1 1.3
2018-May-21 16:00N 19°30' W 095°53'1 1.1
2018-May-21 15:30N 19°31' W 095°53'1 1.3
2018-May-21 15:00N 19°31' W 095°52'1 1.4
2018-May-21 14:30N 19°32' W 095°52'0 0.7
2018-May-21 13:56N 19°32' W 095°52'511.0
2018-May-21 13:30N 19°28' W 095°54'612.7
2018-May-21 13:00N 19°22' W 095°57'2 3.6
2018-May-21 12:30N 19°20' W 095°58'1 1.6
2018-May-21 12:00N 19°21' W 095°57'1 1.7
2018-May-21 11:30N 19°22' W 095°57'1 1.6
2018-May-21 11:00N 19°22' W 095°56'1 1.6
2018-May-21 10:30N 19°23' W 095°56'1 1.5
2018-May-21 10:00N 19°24' W 095°55'1 1.4
2018-May-21 09:30N 19°24' W 095°55'1 1.3
2018-May-21 09:00N 19°25' W 095°55'1 1.2
2018-May-21 08:30N 19°25' W 095°54'1 1.3
2018-May-21 08:00N 19°26' W 095°54'1 1.3
2018-May-21 07:29N 19°27' W 095°54'1 1.5
2018-May-21 07:00N 19°27' W 095°54'1 1.7
2018-May-21 06:30N 19°28' W 095°53'1 1.7
2018-May-21 06:00N 19°29' W 095°53'1 1.6
2018-May-21 05:30N 19°30' W 095°53'1 1.7
2018-May-21 05:00N 19°30' W 095°52'1 1.4
2018-May-21 04:30N 19°31' W 095°52'1 1.4
2018-May-21 04:00N 19°32' W 095°52'1 1.5
2018-May-21 03:29N 19°32' W 095°51'0 0.3
2018-May-21 02:56N 19°32' W 095°51'4 8.4
2018-May-21 02:29N 19°29' W 095°53'612.9
2018-May-21 02:00N 19°24' W 095°57'4 8.7
2018-May-21 01:30N 19°20' W 095°59'1 1.3
2018-May-21 01:00N 19°21' W 095°59'1 1.5
2018-May-21 00:30N 19°21' W 095°58'1 1.5
2018-May-21 00:00N 19°22' W 095°58'1 1.4
2018-May-20 23:30N 19°23' W 095°58'1 1.3
2018-May-20 23:00N 19°23' W 095°57'0 0.8
2018-May-20 22:30N 19°23' W 095°57'2 3.1
2018-May-20 22:00N 19°22' W 095°58'1 1.2
2018-May-20 21:30N 19°23' W 095°58'1 1.1
2018-May-20 21:00N 19°23' W 095°58'1 1.0
2018-May-20 20:30N 19°24' W 095°57'1 1.0
2018-May-20 20:00N 19°24' W 095°57'0 0.9
2018-May-20 19:30N 19°25' W 095°57'0 0.9
2018-May-20 19:00N 19°25' W 095°57'0 0.9
2018-May-20 18:30N 19°25' W 095°57'0 0.8
2018-May-20 18:00N 19°26' W 095°56'0 0.9
2018-May-20 17:30N 19°26' W 095°56'0 0.9
2018-May-20 17:00N 19°27' W 095°56'0 0.8
2018-May-20 16:30N 19°27' W 095°56'0 0.8
2018-May-20 16:00N 19°27' W 095°56'0 0.7
2018-May-20 15:30N 19°27' W 095°55'0 0.8
2018-May-20 15:00N 19°28' W 095°55'0 0.7
2018-May-20 14:30N 19°28' W 095°55'0 0.7
2018-May-20 14:00N 19°28' W 095°55'0 0.8
2018-May-20 13:30N 19°29' W 095°54'0 0.8
2018-May-20 13:00N 19°29' W 095°54'0 0.8
2018-May-20 12:26N 19°29' W 095°54'0 0.8
2018-May-20 12:00N 19°29' W 095°54'0 0.9
2018-May-20 11:30N 19°30' W 095°53'0 1.0
2018-May-20 11:00N 19°30' W 095°53'0 0.9
2018-May-20 10:30N 19°30' W 095°52'0 0.9
2018-May-20 10:00N 19°31' W 095°52'0 0.9
2018-May-20 09:30N 19°31' W 095°52'0 0.9
2018-May-20 09:00N 19°31' W 095°51'0 0.4
2018-May-20 08:25N 19°31' W 095°51'0 0.6
2018-May-20 08:00N 19°31' W 095°51'4 8.8
2018-May-20 07:30N 19°28' W 095°55'713.9
2018-May-20 07:00N 19°23' W 096°00'1 1.7
2018-May-20 06:30N 19°22' W 096°00'1 1.1
2018-May-20 05:59N 19°23' W 095°60'1 1.5
2018-May-20 05:30N 19°23' W 095°59'1 1.6
2018-May-20 05:01N 19°24' W 095°58'1 1.8
2018-May-20 04:30N 19°24' W 095°58'1 1.8
2018-May-20 04:00N 19°25' W 095°57'1 1.8
2018-May-20 03:30N 19°26' W 095°57'1 1.9
2018-May-20 03:00N 19°26' W 095°56'1 1.9
2018-May-20 02:30N 19°27' W 095°56'1 1.7
2018-May-20 02:00N 19°28' W 095°55'1 1.5
2018-May-20 01:31N 19°29' W 095°55'1 1.3
2018-May-20 00:59N 19°29' W 095°54'1 1.2
2018-May-20 00:30N 19°30' W 095°54'1 1.0
2018-May-20 00:00N 19°30' W 095°54'0 1.0
2018-May-19 23:30N 19°31' W 095°54'0 0.9
2018-May-19 23:00N 19°31' W 095°54'0 0.8
2018-May-19 22:30N 19°32' W 095°54'0 0.8
2018-May-19 22:00N 19°32' W 095°54'0 0.7
2018-May-19 21:30N 19°32' W 095°54'0 0.7
2018-May-19 21:00N 19°33' W 095°54'0 0.5
2018-May-19 20:30N 19°33' W 095°54'0 0.4
2018-May-19 20:00N 19°33' W 095°54'0 0.4
2018-May-19 19:30N 19°33' W 095°54'0 0.3
2018-May-19 18:27N 19°34' W 095°54'0 0.0
2018-May-19 17:59N 19°34' W 095°54'0 0.2
2018-May-19 17:30N 19°33' W 095°54'0 0.4
2018-May-19 16:59N 19°33' W 095°54'0 0.8
2018-May-19 16:30N 19°33' W 095°54'0 0.4
2018-May-19 15:56N 19°33' W 095°54'0 0.6
2018-May-19 15:29N 19°33' W 095°54'0 0.7
2018-May-19 15:00N 19°32' W 095°54'0 0.8
2018-May-19 14:30N 19°32' W 095°54'0 0.8
2018-May-19 14:00N 19°32' W 095°54'0 0.7
2018-May-19 13:30N 19°31' W 095°54'0 0.7
2018-May-19 13:00N 19°31' W 095°53'0 0.7
2018-May-19 12:30N 19°31' W 095°53'0 0.7
2018-May-19 11:56N 19°31' W 095°53'0 0.9
2018-May-19 11:30N 19°31' W 095°52'0 0.9
2018-May-19 11:00N 19°31' W 095°52'0 0.8
2018-May-19 10:30N 19°31' W 095°51'1 0.5
2018-May-19 08:41N 19°30' W 095°51'1 5.6
2018-May-19 08:30N 19°29' W 095°52'713.6
2018-May-19 08:00N 19°23' W 095°54'1 2.6
2018-May-19 07:30N 19°22' W 095°55'0 1.0
2018-May-19 07:00N 19°22' W 095°54'1 1.1
2018-May-19 06:30N 19°22' W 095°54'1 1.1
2018-May-19 06:00N 19°23' W 095°53'1 1.1
2018-May-19 05:30N 19°23' W 095°53'1 1.2
2018-May-19 05:00N 19°23' W 095°53'1 1.4
2018-May-19 04:30N 19°24' W 095°52'1 1.4
2018-May-19 04:00N 19°25' W 095°52'1 1.4
2018-May-19 03:30N 19°25' W 095°51'1 1.2
2018-May-19 03:00N 19°26' W 095°51'1 1.3
2018-May-19 02:28N 19°26' W 095°51'1 1.1
2018-May-19 01:59N 19°27' W 095°51'1 1.0
2018-May-19 01:30N 19°27' W 095°51'0 1.0
2018-May-19 01:00N 19°28' W 095°51'1 1.0
2018-May-19 00:27N 19°28' W 095°51'0 0.9
2018-May-19 00:00N 19°29' W 095°51'0 0.6
2018-May-18 23:30N 19°29' W 095°51'0 0.5
2018-May-18 23:00N 19°29' W 095°51'0 0.4
2018-May-18 22:30N 19°30' W 095°51'0 0.3
2018-May-18 22:00N 19°30' W 095°51'0 0.3
2018-May-18 21:30N 19°30' W 095°51'0 0.5
2018-May-18 21:00N 19°30' W 095°51'0 0.6
2018-May-18 20:30N 19°29' W 095°52'0 0.6
2018-May-18 20:00N 19°29' W 095°52'0 0.6
2018-May-18 19:30N 19°29' W 095°52'0 0.4
2018-May-18 18:54N 19°29' W 095°52'0 0.4
2018-May-18 18:30N 19°29' W 095°53'0 0.4
2018-May-18 17:43N 19°29' W 095°53'0 0.4
2018-May-18 17:26N 19°29' W 095°53'0 0.5
2018-May-18 17:00N 19°28' W 095°53'0 0.5
2018-May-18 16:30N 19°28' W 095°53'0 0.6
2018-May-18 16:00N 19°28' W 095°53'0 0.6
2018-May-18 15:30N 19°28' W 095°53'0 0.4
2018-May-18 15:00N 19°27' W 095°53'0 0.2
2018-May-18 14:30N 19°28' W 095°53'0 0.3
2018-May-18 14:00N 19°28' W 095°53'0 0.4
2018-May-18 13:30N 19°28' W 095°53'0 0.4
2018-May-18 13:00N 19°28' W 095°53'0 0.3
2018-May-18 12:30N 19°28' W 095°53'0 0.3
2018-May-18 12:01N 19°28' W 095°52'0 0.2
2018-May-18 11:30N 19°28' W 095°52'0 0.1
2018-May-18 11:00N 19°28' W 095°52'0 0.2
2018-May-18 10:30N 19°28' W 095°52'0 0.2
2018-May-18 10:00N 19°28' W 095°52'0 0.3
2018-May-18 09:28N 19°28' W 095°52'0 0.4
2018-May-18 09:00N 19°29' W 095°52'0 0.5
2018-May-18 08:31N 19°29' W 095°52'0 0.6
2018-May-18 08:01N 19°29' W 095°52'0 0.5
2018-May-18 07:31N 19°29' W 095°52'0 0.5
2018-May-18 07:00N 19°30' W 095°51'0 0.5
2018-May-18 06:30N 19°30' W 095°51'0 0.5
2018-May-18 05:59N 19°30' W 095°51'0 0.5
2018-May-18 05:30N 19°30' W 095°51'0 0.3
2018-May-18 05:00N 19°30' W 095°51'0 0.3
2018-May-18 04:30N 19°30' W 095°51'0 0.1
2018-May-18 04:00N 19°31' W 095°51'0 0.1
2018-May-18 03:30N 19°30' W 095°51'1 1.2
2018-May-18 03:01N 19°30' W 095°51'612.2
2018-May-18 02:30N 19°25' W 095°54'714.1
2018-May-18 02:00N 19°18' W 095°57'510.2
2018-May-18 01:30N 19°15' W 095°53'714.3
2018-May-18 01:00N 19°15' W 095°46'814.3
2018-May-18 00:28N 19°15' W 095°38'27114.2
2018-May-17 05:24N 21°17' W 091°20'614.9
2018-May-17 04:59N 21°20' W 091°14'814.9
2018-May-17 04:28N 21°24' W 091°07'714.9
2018-May-17 04:00N 21°27' W 091°01'715.1
2018-May-17 03:31N 21°31' W 090°53'815.1
2018-May-17 03:00N 21°34' W 090°46'815.1
2018-May-17 02:31N 21°38' W 090°39'815.0
2018-May-17 02:00N 21°42' W 090°32'815.2
2018-May-17 01:30N 21°45' W 090°25'815.1
2018-May-17 01:01N 21°49' W 090°18'815.3
2018-May-17 00:28N 21°53' W 090°10'715.4
2018-May-17 00:00N 21°56' W 090°03'815.2
2018-May-16 23:30N 21°60' W 089°56'1015.0
2018-May-16 22:51N 22°04' W 089°46'615.1
2018-May-16 22:29N 22°06' W 089°41'58214.3
2018-May-15 05:49N 24°57' W 079°34'917.7
2018-May-15 05:20N 25°05' W 079°33'617.7
2018-May-15 05:00N 25°11' W 079°32'917.5
2018-May-15 04:30N 25°20' W 079°32'817.3
2018-May-15 04:00N 25°28' W 079°32'917.1
2018-May-15 03:30N 25°37' W 079°32'816.7
2018-May-15 03:00N 25°45' W 079°31'1116.6
2018-May-15 02:19N 25°56' W 079°28'616.9
2018-May-15 01:59N 26°02' W 079°27'816.1
2018-May-15 01:30N 26°09' W 079°27'612.3
2018-May-15 01:00N 26°16' W 079°26'  
2018-May-12 20:40N 35°29' W 073°19'213.7
2018-May-12 20:30N 35°32' W 073°18'  

Dump ship's entire track history